createdAt,value
2023-04-25T00:01:00.378Z,53.70
2023-04-25T00:03:27.735Z,53.74
2023-04-25T00:05:55.879Z,53.53
2023-04-25T00:08:23.875Z,53.87
2023-04-25T00:10:51.138Z,54.23
2023-04-25T00:13:18.429Z,53.94
2023-04-25T00:15:45.791Z,54.36
2023-04-25T00:18:13.128Z,53.99
2023-04-25T00:20:40.425Z,54.28
2023-04-25T00:23:07.720Z,53.80
2023-04-25T00:25:35.109Z,53.54
2023-04-25T00:28:02.801Z,53.46
2023-04-25T00:30:30.158Z,53.97
2023-04-25T00:32:57.442Z,53.83
2023-04-25T00:35:24.796Z,53.91
2023-04-25T00:37:52.107Z,53.96
2023-04-25T00:40:19.723Z,53.79
2023-04-25T00:42:49.058Z,53.99
2023-04-25T00:45:16.519Z,54.03
2023-04-25T00:47:44.629Z,54.29
2023-04-25T00:50:13.153Z,53.76
2023-04-25T00:52:46.102Z,53.36
2023-04-25T00:55:14.456Z,53.82
2023-04-25T00:57:43.885Z,53.70
2023-04-25T01:00:13.824Z,53.81
2023-04-25T01:02:42.664Z,53.66
2023-04-25T01:05:10.614Z,53.94
2023-04-25T01:07:38.372Z,53.48
2023-04-25T01:10:07.588Z,53.92
2023-04-25T01:12:35.567Z,53.72
2023-04-25T01:15:03.164Z,54.15
2023-04-25T01:17:30.483Z,54.32
2023-04-25T01:19:58.303Z,54.06
2023-04-25T01:22:27.218Z,53.95
2023-04-25T01:24:54.954Z,54.07
2023-04-25T01:27:23.676Z,53.86
2023-04-25T01:29:52.357Z,53.67
2023-04-25T01:32:20.530Z,53.88
2023-04-25T01:34:48.107Z,53.94
2023-04-25T01:37:15.436Z,54.04
2023-04-25T01:39:43.146Z,54.59
2023-04-25T01:42:10.446Z,54.69
2023-04-25T01:44:37.867Z,54.29
2023-04-25T01:47:05.243Z,54.42
2023-04-25T01:49:32.817Z,54.64
2023-04-25T01:52:00.461Z,54.52
2023-04-25T01:54:27.736Z,54.62
2023-04-25T01:56:58.358Z,54.57
2023-04-25T01:59:25.865Z,54.24
2023-04-25T02:01:53.715Z,54.60
2023-04-25T02:04:21.291Z,54.69
2023-04-25T02:06:48.737Z,54.76
2023-04-25T02:09:21.506Z,54.34
2023-04-25T02:11:51.877Z,54.28
2023-04-25T02:14:19.155Z,54.41
2023-04-25T02:16:46.546Z,54.54
2023-04-25T02:19:14.127Z,54.49
2023-04-25T02:21:41.341Z,54.27
2023-04-25T02:24:09.368Z,54.51
2023-04-25T02:26:36.614Z,54.14
2023-04-25T02:29:04.226Z,54.21
2023-04-25T02:31:31.464Z,54.43
2023-04-25T02:33:58.803Z,54.50
2023-04-25T02:36:26.138Z,54.13
2023-04-25T02:38:53.421Z,54.15
2023-04-25T02:41:21.001Z,54.17
2023-04-25T02:43:48.842Z,54.02
2023-04-25T02:46:20.811Z,54.47
2023-04-25T02:48:52.985Z,54.25
2023-04-25T02:51:20.463Z,54.15
2023-04-25T02:53:48.050Z,54.38
2023-04-25T02:56:16.082Z,54.63
2023-04-25T02:58:43.502Z,54.46
2023-04-25T03:01:10.806Z,54.66
2023-04-25T03:03:38.146Z,54.90
2023-04-25T03:06:05.666Z,54.74
2023-04-25T03:08:33.081Z,54.83
2023-04-25T03:11:00.361Z,54.49
2023-04-25T03:13:27.667Z,54.60
2023-04-25T03:15:55.016Z,54.71
2023-04-25T03:18:22.435Z,54.79
2023-04-25T03:20:49.671Z,54.88
2023-04-25T03:23:16.977Z,54.71
2023-04-25T03:25:44.348Z,54.92
2023-04-25T03:28:11.668Z,54.70
2023-04-25T03:30:40.528Z,54.59
2023-04-25T03:33:09.245Z,54.58
2023-04-25T03:35:37.026Z,54.48
2023-04-25T03:38:04.255Z,54.25
2023-04-25T03:40:31.660Z,54.57
2023-04-25T03:42:58.883Z,54.39
2023-04-25T03:45:26.148Z,54.46
2023-04-25T03:47:53.425Z,54.00
2023-04-25T03:50:20.957Z,54.09
2023-04-25T03:52:48.282Z,54.56
2023-04-25T03:55:15.616Z,54.20
2023-04-25T03:57:42.924Z,54.38
2023-04-25T04:00:11.018Z,54.40
2023-04-25T04:02:38.737Z,54.20
2023-04-25T04:05:07.107Z,53.72
2023-04-25T04:07:34.644Z,53.72
2023-04-25T04:10:02.086Z,53.64
2023-04-25T04:12:29.448Z,53.96
2023-04-25T04:14:56.905Z,54.33
2023-04-25T04:17:24.373Z,54.61
2023-04-25T04:19:51.730Z,54.33
2023-04-25T04:22:19.239Z,54.21
2023-04-25T04:24:46.502Z,53.94
2023-04-25T04:27:13.962Z,54.29
2023-04-25T04:29:41.210Z,54.19
2023-04-25T04:32:16.411Z,54.05
2023-04-25T04:34:43.989Z,54.20
2023-04-25T04:37:11.488Z,54.60
2023-04-25T04:39:38.866Z,54.41
2023-04-25T04:42:06.404Z,54.32
2023-04-25T04:44:34.216Z,54.77
2023-04-25T04:47:02.066Z,54.55
2023-04-25T04:49:29.508Z,54.47
2023-04-25T04:51:59.056Z,54.52
2023-04-25T04:54:27.156Z,54.63
2023-04-25T04:56:54.494Z,54.70
2023-04-25T04:59:21.774Z,54.71
2023-04-25T05:01:49.021Z,54.90
2023-04-25T05:04:16.401Z,54.54
2023-04-25T05:06:44.063Z,54.52
2023-04-25T05:09:11.326Z,54.64
2023-04-25T05:11:38.584Z,54.92
2023-04-25T05:14:06.329Z,54.74
2023-04-25T05:16:33.955Z,54.80
2023-04-25T05:19:01.486Z,54.80
2023-04-25T05:21:28.879Z,55.44
2023-04-25T05:23:56.331Z,55.26
2023-04-25T05:26:23.969Z,54.70
2023-04-25T05:28:51.559Z,54.92
2023-04-25T05:31:19.509Z,55.34
2023-04-25T05:33:46.926Z,55.50
2023-04-25T05:36:14.629Z,55.41
2023-04-25T05:38:43.457Z,55.76
2023-04-25T05:41:11.596Z,55.45
2023-04-25T05:43:39.054Z,55.71
2023-04-25T05:46:06.496Z,55.41
2023-04-25T05:48:33.828Z,55.57
2023-04-25T05:51:01.248Z,55.63
2023-04-25T05:53:28.466Z,55.74
2023-04-25T05:55:55.976Z,55.72
2023-04-25T05:58:24.112Z,55.70
2023-04-25T06:00:51.523Z,55.47
2023-04-25T06:03:20.828Z,55.55
2023-04-25T06:05:48.944Z,55.54
2023-04-25T06:08:16.574Z,55.76
2023-04-25T06:10:44.042Z,55.72
2023-04-25T06:13:11.401Z,55.80
2023-04-25T06:15:38.847Z,55.60
2023-04-25T06:18:06.390Z,55.76
2023-04-25T06:20:33.950Z,56.08
2023-04-25T06:23:05.665Z,56.32
2023-04-25T06:25:33.607Z,55.88
2023-04-25T06:28:02.254Z,56.00
2023-04-25T06:30:29.777Z,55.81
2023-04-25T06:32:58.116Z,55.51
2023-04-25T06:35:25.591Z,55.75
2023-04-25T06:37:52.830Z,55.54
2023-04-25T06:40:20.274Z,55.24
2023-04-25T06:42:47.542Z,55.06
2023-04-25T06:45:14.968Z,54.64
2023-04-25T06:47:42.281Z,54.36
2023-04-25T06:50:10.199Z,53.75
2023-04-25T06:52:40.297Z,52.85
2023-04-25T06:55:08.060Z,51.98
2023-04-25T06:57:35.258Z,51.25
2023-04-25T07:00:02.763Z,51.19
2023-04-25T07:02:30.197Z,50.83
2023-04-25T07:04:57.597Z,50.80
2023-04-25T07:07:24.992Z,51.31
2023-04-25T07:09:52.234Z,51.18
2023-04-25T07:12:19.691Z,51.06
2023-04-25T07:14:46.831Z,50.75
2023-04-25T07:17:15.307Z,50.36
2023-04-25T07:19:42.488Z,50.01
2023-04-25T07:22:09.680Z,49.91
2023-04-25T07:24:36.949Z,49.42
2023-04-25T07:27:04.481Z,49.24
2023-04-25T07:29:31.802Z,49.22
2023-04-25T07:31:59.264Z,49.21
2023-04-25T07:34:26.652Z,48.73
2023-04-25T07:36:54.235Z,48.50
2023-04-25T07:39:22.003Z,48.00
2023-04-25T07:41:49.332Z,47.61
2023-04-25T07:44:16.752Z,47.42
2023-04-25T07:46:44.000Z,47.23
2023-04-25T07:49:11.202Z,47.02
2023-04-25T07:51:38.703Z,46.85
2023-04-25T07:54:05.974Z,46.59
2023-04-25T07:56:45.259Z,46.94
2023-04-25T07:59:19.250Z,46.11
2023-04-25T08:01:46.471Z,46.38
2023-04-25T08:04:13.926Z,45.76
2023-04-25T08:06:41.680Z,45.43
2023-04-25T08:09:09.292Z,45.32
2023-04-25T08:11:37.385Z,44.72
2023-04-25T08:14:04.661Z,44.33
2023-04-25T08:16:32.048Z,44.73
2023-04-25T08:19:01.144Z,43.80
2023-04-25T08:21:28.720Z,44.31
2023-04-25T08:23:56.431Z,43.79
2023-04-25T08:26:23.791Z,43.68
2023-04-25T08:28:51.855Z,44.40
2023-04-25T08:31:19.492Z,43.15
2023-04-25T08:33:47.120Z,43.09
2023-04-25T08:36:17.287Z,42.79
2023-04-25T08:38:48.919Z,43.18
2023-04-25T08:41:18.159Z,42.62
2023-04-25T08:43:46.223Z,42.11
2023-04-25T08:46:18.316Z,42.18
2023-04-25T08:48:47.406Z,41.80
2023-04-25T08:51:23.952Z,41.62
2023-04-25T08:53:54.365Z,40.81
2023-04-25T08:56:26.988Z,40.57
2023-04-25T08:58:57.146Z,40.07
2023-04-25T09:01:24.835Z,39.54
2023-04-25T09:03:52.615Z,38.83
2023-04-25T09:06:21.097Z,37.89
2023-04-25T09:08:51.444Z,37.13
2023-04-25T09:11:21.524Z,37.49
2023-04-25T09:13:50.894Z,36.91
2023-04-25T09:16:18.401Z,36.45
2023-04-25T09:18:49.116Z,35.65
2023-04-25T09:21:16.446Z,35.85
2023-04-25T09:23:48.303Z,35.71
2023-04-25T09:26:19.259Z,35.77
2023-04-25T09:28:47.127Z,36.10
2023-04-25T09:31:24.035Z,36.00
2023-04-25T09:33:51.873Z,35.35
2023-04-25T09:36:27.809Z,37.22
2023-04-25T09:38:56.454Z,38.26
2023-04-25T09:41:26.742Z,38.11
2023-04-25T09:43:59.496Z,37.66
2023-04-25T09:46:34.994Z,37.76
2023-04-25T09:49:08.844Z,38.30
2023-04-25T09:51:36.497Z,37.08
2023-04-25T09:54:04.837Z,35.00
2023-04-25T09:56:37.971Z,36.29
2023-04-25T09:59:07.033Z,36.41
2023-04-25T10:01:35.954Z,36.08
2023-04-25T10:04:09.320Z,36.81
2023-04-25T10:06:39.544Z,36.12
2023-04-25T10:09:08.288Z,37.84
2023-04-25T10:11:37.833Z,36.71
2023-04-25T10:14:05.945Z,35.92
2023-04-25T10:16:34.257Z,34.55
2023-04-25T10:19:03.243Z,34.22
2023-04-25T10:21:34.961Z,35.14
2023-04-25T10:24:03.947Z,34.41
2023-04-25T10:26:32.038Z,35.16
2023-04-25T10:29:03.009Z,34.24
2023-04-25T10:31:33.644Z,33.98
2023-04-25T10:34:01.655Z,34.03
2023-04-25T10:36:33.659Z,33.04
2023-04-25T10:39:08.443Z,34.61
2023-04-25T10:42:00.796Z,33.96
2023-04-25T10:44:32.220Z,33.66
2023-04-25T10:47:02.167Z,34.09
2023-04-25T10:49:43.198Z,33.77
2023-04-25T10:52:27.320Z,33.80
2023-04-25T10:54:57.890Z,35.47
2023-04-25T10:57:31.449Z,36.49
2023-04-25T11:00:25.990Z,37.65
2023-04-25T11:03:01.445Z,38.50
2023-04-25T11:05:43.948Z,38.13
2023-04-25T11:08:43.364Z,38.49
2023-04-25T11:11:11.102Z,37.81
2023-04-25T11:13:38.708Z,39.71
2023-04-25T11:16:13.029Z,39.48
2023-04-25T11:18:46.216Z,37.66
2023-04-25T11:21:14.730Z,37.31
2023-04-25T11:23:42.064Z,35.51
2023-04-25T11:26:09.367Z,34.29
2023-04-25T11:28:36.712Z,33.00
2023-04-25T11:31:05.762Z,31.91
2023-04-25T11:33:33.218Z,32.87
2023-04-25T11:36:00.837Z,31.64
2023-04-25T11:38:29.449Z,32.77
2023-04-25T11:40:56.938Z,31.96
2023-04-25T11:43:24.525Z,33.38
2023-04-25T11:45:52.424Z,33.15
2023-04-25T11:48:24.124Z,33.75
2023-04-25T11:50:55.481Z,32.57
2023-04-25T11:53:22.744Z,32.45
2023-04-25T11:55:51.396Z,33.90
2023-04-25T11:58:19.517Z,34.37
2023-04-25T12:00:50.668Z,34.44
2023-04-25T12:03:20.381Z,35.18
2023-04-25T12:05:48.104Z,35.20
2023-04-25T12:08:17.297Z,35.52
2023-04-25T12:10:47.283Z,37.14
2023-04-25T12:13:27.182Z,38.21
2023-04-25T12:15:58.034Z,36.67
2023-04-25T12:18:26.089Z,39.01
2023-04-25T12:20:55.299Z,36.07
2023-04-25T12:23:30.220Z,35.11
2023-04-25T12:25:57.658Z,34.40
2023-04-25T12:28:26.378Z,32.84
2023-04-25T12:31:05.716Z,34.40
2023-04-25T12:33:36.545Z,32.95
2023-04-25T12:36:06.652Z,32.28
2023-04-25T12:38:39.640Z,32.30
2023-04-25T12:41:07.720Z,32.98
2023-04-25T12:43:35.385Z,31.92
2023-04-25T12:46:02.810Z,31.61
2023-04-25T12:48:30.069Z,31.92
2023-04-25T12:50:57.586Z,31.77
2023-04-25T12:53:25.150Z,32.27
2023-04-25T12:55:52.782Z,32.10
2023-04-25T12:58:20.934Z,32.74
2023-04-25T13:00:48.410Z,31.83
2023-04-25T13:03:15.935Z,31.60
2023-04-25T13:05:43.941Z,32.19
2023-04-25T13:08:11.530Z,33.43
2023-04-25T13:10:38.874Z,34.25
2023-04-25T13:13:06.377Z,34.80
2023-04-25T13:15:33.928Z,36.90
2023-04-25T13:18:01.169Z,38.18
2023-04-25T13:20:28.411Z,38.30
2023-04-25T13:22:55.933Z,38.57
2023-04-25T13:25:23.665Z,38.71
2023-04-25T13:27:51.120Z,36.76
2023-04-25T13:30:18.749Z,36.93
2023-04-25T13:32:47.478Z,38.65
2023-04-25T13:35:15.375Z,36.90
2023-04-25T13:37:42.702Z,35.88
2023-04-25T13:40:12.332Z,36.44
2023-04-25T13:42:40.560Z,36.14
2023-04-25T13:45:09.209Z,35.28
2023-04-25T13:47:36.800Z,34.75
2023-04-25T13:50:06.217Z,34.75
2023-04-25T13:52:33.434Z,35.01
2023-04-25T13:55:00.852Z,37.56
2023-04-25T13:57:28.246Z,36.34
2023-04-25T13:59:55.566Z,38.14
2023-04-25T14:02:22.994Z,40.93
2023-04-25T14:04:50.316Z,41.70
2023-04-25T14:07:17.616Z,42.87
2023-04-25T14:09:45.358Z,44.14
2023-04-25T14:12:12.681Z,43.96
2023-04-25T14:14:40.031Z,44.87
2023-04-25T14:17:07.254Z,44.91
2023-04-25T14:19:34.729Z,42.44
2023-04-25T14:22:02.648Z,41.92
2023-04-25T14:24:30.114Z,40.27
2023-04-25T14:26:57.717Z,38.85
2023-04-25T14:29:25.088Z,38.45
2023-04-25T14:31:52.520Z,36.72
2023-04-25T14:34:20.221Z,36.76
2023-04-25T14:36:47.512Z,37.21
2023-04-25T14:39:14.912Z,37.73
2023-04-25T14:41:42.169Z,37.26
2023-04-25T14:44:09.583Z,37.46
2023-04-25T14:46:38.446Z,36.94
2023-04-25T14:49:06.554Z,36.86
2023-04-25T14:51:34.436Z,36.72
2023-04-25T14:54:01.935Z,35.60
2023-04-25T14:56:29.216Z,34.89
2023-04-25T14:58:56.564Z,34.58
2023-04-25T15:01:26.533Z,33.78
2023-04-25T15:03:54.198Z,33.37
2023-04-25T15:06:21.687Z,33.19
2023-04-25T15:08:49.094Z,32.39
2023-04-25T15:11:16.509Z,32.52
2023-04-25T15:13:44.330Z,33.14
2023-04-25T15:16:11.708Z,32.47
2023-04-25T15:18:39.219Z,31.61
2023-04-25T15:21:07.751Z,31.32
2023-04-25T15:23:35.146Z,31.72
2023-04-25T15:26:02.400Z,30.99
2023-04-25T15:28:29.742Z,31.50
2023-04-25T15:30:57.211Z,31.01
2023-04-25T15:33:24.670Z,29.87
2023-04-25T15:35:51.920Z,29.20
2023-04-25T15:38:19.290Z,29.32
2023-04-25T15:40:46.831Z,28.74
2023-04-25T15:43:14.089Z,28.71
2023-04-25T15:45:41.886Z,27.33
2023-04-25T15:48:09.303Z,26.97
2023-04-25T15:50:36.966Z,26.37
2023-04-25T15:53:07.407Z,25.54
2023-04-25T15:55:35.450Z,26.52
2023-04-25T15:58:03.208Z,26.52
2023-04-25T16:00:30.770Z,27.24
2023-04-25T16:02:58.289Z,27.01
2023-04-25T16:05:30.889Z,26.49
2023-04-25T16:07:58.349Z,26.61
2023-04-25T16:10:25.961Z,26.12
2023-04-25T16:12:53.488Z,26.23
2023-04-25T16:15:21.221Z,26.59
2023-04-25T16:17:51.369Z,26.62
2023-04-25T16:20:19.227Z,24.03
2023-04-25T16:22:46.418Z,24.70
2023-04-25T16:25:17.894Z,25.00
2023-04-25T16:27:45.299Z,24.79
2023-04-25T16:30:13.001Z,24.62
2023-04-25T16:32:45.517Z,24.48
2023-04-25T16:35:13.612Z,24.36
2023-04-25T16:37:40.895Z,24.97
2023-04-25T16:40:09.030Z,25.06
2023-04-25T16:42:37.015Z,24.56
2023-04-25T16:45:05.120Z,24.21
2023-04-25T16:47:32.640Z,24.60
2023-04-25T16:50:01.042Z,25.56
2023-04-25T16:52:29.618Z,25.63
2023-04-25T16:54:56.895Z,24.94
2023-04-25T16:57:24.161Z,25.50
2023-04-25T16:59:51.489Z,25.74
2023-04-25T17:02:18.883Z,26.78
2023-04-25T17:04:47.919Z,26.37
2023-04-25T17:07:15.178Z,26.85
2023-04-25T17:09:42.450Z,26.87
2023-04-25T17:12:09.669Z,27.99
2023-04-25T17:14:36.986Z,27.77
2023-04-25T17:17:04.560Z,27.71
2023-04-25T17:19:31.941Z,28.18
2023-04-25T17:21:59.319Z,28.79
2023-04-25T17:24:26.734Z,28.18
2023-04-25T17:26:54.171Z,28.64
2023-04-25T17:29:21.489Z,27.83
2023-04-25T17:31:48.886Z,28.76
2023-04-25T17:34:16.206Z,28.76
2023-04-25T17:36:47.021Z,28.40
2023-04-25T17:39:14.509Z,28.68
2023-04-25T17:41:41.826Z,28.43
2023-04-25T17:44:09.335Z,28.61
2023-04-25T17:46:36.707Z,29.10
2023-04-25T17:49:04.066Z,29.33
2023-04-25T17:51:31.338Z,29.79
2023-04-25T17:53:58.871Z,30.05
2023-04-25T17:56:29.429Z,30.53
2023-04-25T17:58:56.742Z,29.51
2023-04-25T18:01:24.200Z,29.53
2023-04-25T18:03:52.148Z,30.66
2023-04-25T18:06:19.835Z,30.02
2023-04-25T18:08:47.432Z,30.30
2023-04-25T18:11:14.907Z,31.21
2023-04-25T18:13:42.334Z,31.40
2023-04-25T18:16:12.070Z,31.45
2023-04-25T18:18:39.357Z,32.30
2023-04-25T18:21:06.698Z,32.55
2023-04-25T18:23:34.401Z,32.78
2023-04-25T18:26:02.848Z,32.95
2023-04-25T18:28:30.333Z,33.15
2023-04-25T18:30:57.664Z,34.15
2023-04-25T18:33:25.341Z,34.36
2023-04-25T18:35:58.675Z,34.62
2023-04-25T18:41:08.232Z,36.14
2023-04-25T18:43:43.162Z,37.42
2023-04-25T18:46:10.539Z,37.25
2023-04-25T18:48:37.909Z,37.44
2023-04-25T18:51:05.238Z,37.72
2023-04-25T18:53:32.712Z,38.29
2023-04-25T18:55:59.887Z,38.43
2023-04-25T18:58:27.192Z,38.88
2023-04-25T19:00:54.483Z,38.77
2023-04-25T19:03:22.543Z,38.78
2023-04-25T19:05:50.209Z,39.44
2023-04-25T19:08:17.766Z,39.13
2023-04-25T19:10:45.201Z,39.26
2023-04-25T19:13:14.004Z,39.55
2023-04-25T19:15:41.368Z,39.75
2023-04-25T19:18:08.693Z,39.41
2023-04-25T19:20:36.239Z,39.48
2023-04-25T19:23:05.568Z,39.44
2023-04-25T19:25:34.548Z,37.56
2023-04-25T19:28:01.929Z,39.04
2023-04-25T19:30:29.907Z,38.77
2023-04-25T19:32:57.868Z,39.20
2023-04-25T19:35:25.626Z,39.12
2023-04-25T19:37:52.856Z,39.76
2023-04-25T19:40:20.161Z,39.92
2023-04-25T19:42:47.714Z,40.27
2023-04-25T19:45:15.188Z,40.58
2023-04-25T19:47:42.960Z,40.36
2023-04-25T19:50:11.279Z,40.34
2023-04-25T19:52:39.627Z,40.82
2023-04-25T19:55:07.966Z,41.21
2023-04-25T19:57:35.704Z,41.24
2023-04-25T20:00:11.750Z,41.35
2023-04-25T20:02:39.805Z,41.74
2023-04-25T20:05:09.242Z,41.73
2023-04-25T20:07:36.645Z,41.86
2023-04-25T20:10:06.972Z,41.80
2023-04-25T20:12:36.332Z,42.25
2023-04-25T20:15:04.879Z,42.44
2023-04-25T20:17:32.351Z,41.93
2023-04-25T20:20:00.345Z,41.44
2023-04-25T20:22:27.807Z,41.57
2023-04-25T20:24:54.992Z,41.83
2023-04-25T20:27:22.323Z,41.67
2023-04-25T20:29:49.969Z,41.51
2023-04-25T20:32:17.406Z,41.88
2023-04-25T20:34:44.642Z,42.05
2023-04-25T20:37:11.937Z,42.06
2023-04-25T20:39:39.343Z,42.08
2023-04-25T20:42:06.684Z,41.69
2023-04-25T20:44:33.955Z,41.72
2023-04-25T20:47:01.277Z,42.13
2023-04-25T20:49:28.484Z,41.66
2023-04-25T20:51:55.736Z,41.83
2023-04-25T20:54:22.927Z,42.08
2023-04-25T20:56:50.306Z,41.93
2023-04-25T20:59:17.579Z,42.29
2023-04-25T21:01:44.906Z,41.94
2023-04-25T21:04:12.291Z,42.25
2023-04-25T21:06:39.589Z,42.67
2023-04-25T21:09:06.976Z,42.52
2023-04-25T21:11:34.319Z,42.33
2023-04-25T21:14:01.644Z,42.64
2023-04-25T21:16:28.925Z,42.40
2023-04-25T21:18:56.178Z,42.75
2023-04-25T21:21:23.507Z,42.90
2023-04-25T21:23:50.918Z,42.94
2023-04-25T21:26:18.157Z,42.94
2023-04-25T21:28:45.849Z,43.20
2023-04-25T21:31:13.349Z,43.29
2023-04-25T21:33:41.599Z,43.13
2023-04-25T21:36:09.213Z,43.66
2023-04-25T21:38:36.670Z,44.14
2023-04-25T21:41:04.908Z,43.84
2023-04-25T21:43:32.253Z,43.65
2023-04-25T21:46:21.625Z,44.19
2023-04-25T21:48:46.794Z,43.91
2023-04-25T21:51:14.149Z,43.84
2023-04-25T21:53:41.417Z,44.13
2023-04-25T21:56:08.836Z,44.49
2023-04-25T21:58:36.160Z,44.41
2023-04-25T22:01:04.193Z,44.48
2023-04-25T22:03:33.272Z,44.24
2023-04-25T22:06:00.966Z,44.43
2023-04-25T22:08:28.284Z,44.17
2023-04-25T22:10:55.789Z,44.44
2023-04-25T22:13:23.421Z,44.53
2023-04-25T22:15:50.662Z,44.60
2023-04-25T22:18:18.810Z,44.96
2023-04-25T22:20:46.314Z,44.76
2023-04-25T22:23:13.554Z,44.79
2023-04-25T22:25:40.789Z,44.76
2023-04-25T22:28:08.053Z,44.95
2023-04-25T22:30:35.620Z,44.65
2023-04-25T22:33:03.048Z,44.85
2023-04-25T22:35:30.320Z,44.85
2023-04-25T22:37:57.595Z,44.79
2023-04-25T22:40:24.896Z,45.08
2023-04-25T22:42:52.230Z,45.10
2023-04-25T22:45:19.595Z,45.04
2023-04-25T22:47:46.855Z,45.26
2023-04-25T22:50:14.113Z,45.57
2023-04-25T22:52:41.283Z,45.38
2023-04-25T22:55:08.868Z,45.44
2023-04-25T22:57:37.914Z,45.72
2023-04-25T23:00:07.704Z,45.16
2023-04-25T23:02:35.125Z,45.19
2023-04-25T23:05:02.670Z,45.65
2023-04-25T23:07:29.898Z,45.76
2023-04-25T23:09:57.202Z,46.19
2023-04-25T23:12:24.508Z,45.67
2023-04-25T23:14:51.946Z,45.80
2023-04-25T23:17:19.572Z,46.35
2023-04-25T23:19:47.320Z,46.20
2023-04-25T23:22:14.507Z,46.51
2023-04-25T23:24:41.998Z,46.54
2023-04-25T23:27:09.791Z,46.91
2023-04-25T23:29:37.119Z,47.00
2023-04-25T23:32:04.553Z,46.93
2023-04-25T23:34:32.994Z,47.15
2023-04-25T23:37:00.847Z,47.05
2023-04-25T23:39:28.574Z,46.83
2023-04-25T23:41:56.051Z,47.01
2023-04-25T23:44:23.294Z,47.04
2023-04-25T23:46:50.871Z,47.18
2023-04-25T23:49:18.118Z,47.02
2023-04-25T23:51:45.313Z,47.37
2023-04-25T23:54:12.767Z,47.20
2023-04-25T23:56:40.080Z,47.11
2023-04-25T23:59:07.514Z,47.38
